Time;durP1;ratioP1;P1;durP2;ratioP2;P2;SDS_P1;SDS_P2;PMS_P1;PMS_P2;Temp;Humidity;BMP_temperature;BMP_pressure;BME280_temperature;BME280_humidity;BME280_pressure;Samples;Min_cycle;Max_cycle;Signal;HPM_P1;HPM_P2
2022/10/03 00:02:02;;;;;;;0.10;0.10;;;;;;;13.40;71.22;98584.38;7970032;29;20239;-76
2022/10/03 00:06:10;;;;;;;0.10;0.10;;;;;;;13.37;71.84;98580.16;8000026;29;20243;-76
2022/10/03 00:10:20;;;;;;;0.00;0.00;;;;;;;13.41;71.44;98583.47;8000016;29;20239;-76
2022/10/03 00:14:31;;;;;;;0.10;0.10;;;;;;;13.37;71.20;98582.75;8000092;29;20280;-76
2022/10/03 00:18:42;;;;;;;0.00;0.00;;;;;;;13.36;71.31;98594.06;7999741;29;20288;-75
2022/10/03 00:22:51;;;;;;;0.10;0.10;;;;;;;13.33;71.46;98596.81;7999601;29;20464;-76
2022/10/03 00:27:03;;;;;;;0.10;0.10;;;;;;;13.26;71.26;98601.41;7999853;29;20240;-76
2022/10/03 00:31:11;;;;;;;0.10;0.10;;;;;;;13.25;71.04;98612.75;7999843;29;20235;-76
2022/10/03 00:35:24;;;;;;;0.10;0.10;;;;;;;13.23;71.10;98621.50;7999591;29;20231;-76
2022/10/03 00:39:40;;;;;;;0.10;0.10;;;;;;;13.27;70.97;98625.69;7999179;29;20255;-75
2022/10/03 00:44:06;;;;;;;0.10;0.10;;;;;;;13.23;70.65;98624.13;7999675;29;20247;-76
2022/10/03 00:48:29;;;;;;;0.10;0.10;;;;;;;13.20;70.00;98638.09;7975241;29;20236;-76
2022/10/03 00:52:49;;;;;;;0.00;0.00;;;;;;;13.18;70.37;98637.34;8004315;29;20232;-76
2022/10/03 00:57:08;;;;;;;0.10;0.10;;;;;;;13.15;70.37;98632.25;8004399;29;20235;-76
2022/10/03 01:01:25;;;;;;;0.00;0.00;;;;;;;13.05;70.27;98642.22;8004470;29;20246;-76
2022/10/03 01:05:38;;;;;;;0.10;0.10;;;;;;;13.08;70.30;98642.09;8004035;29;20339;-76
2022/10/03 01:09:56;;;;;;;0.10;0.10;;;;;;;13.07;70.25;98642.16;8004369;29;20248;-76
2022/10/03 01:14:16;;;;;;;0.10;0.10;;;;;;;13.10;70.36;98642.03;8005119;29;20259;-76
2022/10/03 01:18:30;;;;;;;0.10;0.10;;;;;;;13.07;70.21;98642.16;8004691;29;20235;-76
2022/10/03 01:23:01;;;;;;;0.10;0.10;;;;;;;12.96;70.28;98647.81;8004628;29;20342;-75
2022/10/03 01:27:05;;;;;;;0.00;0.00;;;;;;;13.02;70.58;98649.31;7984804;29;20236;-76
2022/10/03 01:31:10;;;;;;;0.10;0.10;;;;;;;13.00;70.42;98651.13;8004630;29;20242;-76
2022/10/03 01:35:23;;;;;;;0.10;0.10;;;;;;;12.98;70.10;98650.34;8004250;29;20255;-76
2022/10/03 01:39:28;;;;;;;0.10;0.10;;;;;;;12.94;70.23;98651.41;8003758;29;20309;-76
2022/10/03 01:43:35;;;;;;;0.10;0.10;;;;;;;12.94;70.14;98649.63;8004109;29;20595;-76
2022/10/03 01:47:50;;;;;;;0.10;0.10;;;;;;;12.94;70.11;98646.19;8003926;29;20247;-76
2022/10/03 01:51:59;;;;;;;0.10;0.10;;;;;;;12.89;69.90;98649.00;8004052;29;20402;-76
2022/10/03 01:56:08;;;;;;;0.00;0.00;;;;;;;12.90;70.04;98650.69;8004067;29;20439;-76
2022/10/03 02:00:13;;;;;;;0.10;0.10;;;;;;;12.81;70.79;98654.53;8003926;29;20251;-76
2022/10/03 02:04:23;;;;;;;0.10;0.10;;;;;;;12.83;70.25;98657.91;8003743;29;20251;-76
2022/10/03 02:08:35;;;;;;;0.10;0.10;;;;;;;12.86;70.14;98656.94;8003059;29;20242;-75
2022/10/03 02:12:41;;;;;;;0.10;0.10;;;;;;;12.84;70.42;98666.56;8003528;29;20471;-76
2022/10/03 02:16:45;;;;;;;0.10;0.10;;;;;;;12.88;70.57;98668.09;8003590;29;20254;-76
2022/10/03 02:20:52;;;;;;;0.10;0.10;;;;;;;12.83;70.43;98667.44;8003402;29;20235;-76
2022/10/03 02:25:16;;;;;;;0.10;0.10;;;;;;;12.85;70.21;98679.50;8003338;29;20303;-76
2022/10/03 02:29:31;;;;;;;0.10;0.10;;;;;;;12.82;70.28;98683.97;8002981;29;20265;-76
2022/10/03 02:33:57;;;;;;;0.10;0.10;;;;;;;12.82;70.13;98683.97;8002660;29;20512;-76
2022/10/03 02:38:35;;;;;;;0.10;0.10;;;;;;;12.83;70.06;98694.31;8002833;29;20243;-76
2022/10/03 02:42:59;;;;;;;0.10;0.10;;;;;;;12.76;70.79;98699.81;7996556;29;20468;-76
2022/10/03 02:47:29;;;;;;;0.00;0.00;;;;;;;12.79;70.51;98699.69;8002647;29;20243;-76
2022/10/03 02:52:12;;;;;;;0.10;0.10;;;;;;;12.80;70.44;98697.03;8002185;29;20239;-75
2022/10/03 02:56:50;;;;;;;0.10;0.10;;;;;;;12.73;70.79;98700.78;8002631;29;20243;-76
2022/10/03 03:01:24;;;;;;;0.10;0.10;;;;;;;12.78;70.50;98711.84;8002244;29;20228;-76
2022/10/03 03:05:58;;;;;;;0.10;0.10;;;;;;;12.74;70.66;98714.59;8001863;29;20254;-76
2022/10/03 03:10:27;;;;;;;0.10;0.10;;;;;;;12.71;70.67;98721.63;7991150;29;20313;-76
2022/10/03 03:15:07;;;;;;;0.10;0.10;;;;;;;12.68;70.87;98718.34;8001709;29;20243;-76
2022/10/03 03:19:51;;;;;;;0.10;0.10;;;;;;;12.67;70.64;98725.25;8002106;29;20239;-76
2022/10/03 03:24:17;;;;;;;0.10;0.10;;;;;;;12.69;70.20;98738.19;7987847;29;20444;-76
2022/10/03 03:28:31;;;;;;;0.10;0.10;;;;;;;12.71;70.08;98733.78;8001595;29;20554;-76
2022/10/03 03:32:44;;;;;;;0.10;0.10;;;;;;;12.71;70.18;98737.22;8001423;29;20628;-76
2022/10/03 03:36:54;;;;;;;0.10;0.10;;;;;;;12.70;69.85;98740.75;8001506;29;20239;-76
2022/10/03 03:41:22;;;;;;;0.10;0.10;;;;;;;12.71;69.64;98744.19;8001689;29;20239;-76
2022/10/03 03:45:45;;;;;;;0.00;0.00;;;;;;;12.67;69.50;98740.84;8001447;29;20251;-76
2022/10/03 03:50:05;;;;;;;0.10;0.10;;;;;;;12.70;69.78;98743.34;8001097;29;20239;-76
2022/10/03 03:54:28;;;;;;;0.10;0.10;;;;;;;12.67;69.44;98737.41;8001041;29;20276;-76
2022/10/03 03:58:35;;;;;;;0.10;0.10;;;;;;;12.63;69.72;98748.84;8000668;29;20243;-76
2022/10/03 04:03:04;;;;;;;0.10;0.10;;;;;;;12.61;69.22;98751.50;8001076;29;20235;-76
2022/10/03 04:07:15;;;;;;;0.10;0.10;;;;;;;12.59;69.29;98755.91;8000914;29;20255;-76
2022/10/03 04:11:31;;;;;;;0.10;0.10;;;;;;;12.56;69.72;98756.03;8000536;29;20243;-76
2022/10/03 04:15:43;;;;;;;0.10;0.10;;;;;;;12.58;70.11;98762.00;8000457;29;20239;-76
2022/10/03 04:19:59;;;;;;;0.10;0.10;;;;;;;12.58;69.91;98762.00;8000900;29;20244;-76
2022/10/03 04:24:22;;;;;;;0.10;0.10;;;;;;;12.58;70.15;98768.97;8004879;29;20242;-76
2022/10/03 04:28:45;;;;;;;0.10;0.10;;;;;;;12.65;70.24;98768.66;8006202;29;20243;-76
2022/10/03 04:32:58;;;;;;;0.10;0.10;;;;;;;12.63;70.78;98760.09;8006135;29;20559;-76
2022/10/03 04:37:08;;;;;;;0.10;0.10;;;;;;;12.62;70.34;98761.00;8006004;29;20235;-76
2022/10/03 04:41:20;;;;;;;0.10;0.10;;;;;;;12.70;70.30;98755.50;8005783;29;20553;-76
2022/10/03 04:45:37;;;;;;;0.10;0.10;;;;;;;12.73;70.39;98757.13;8005809;29;20236;-76
2022/10/03 04:49:44;;;;;;;0.10;0.10;;;;;;;12.72;70.33;98764.06;8005489;29;20239;-75
2022/10/03 04:53:52;;;;;;;0.10;0.10;;;;;;;12.69;70.53;98765.03;8005421;29;20263;-76
2022/10/03 04:58:00;;;;;;;0.10;0.10;;;;;;;12.67;70.64;98761.66;8005619;29;20236;-76
2022/10/03 05:02:16;;;;;;;0.10;0.10;;;;;;;12.70;70.56;98761.53;8005232;29;20235;-76
2022/10/03 05:06:31;;;;;;;0.00;0.00;;;;;;;12.68;70.62;98757.31;8005318;29;20550;-76
2022/10/03 05:10:45;;;;;;;0.10;0.10;;;;;;;12.77;70.49;98756.06;8004630;29;20248;-76
2022/10/03 05:14:58;;;;;;;0.10;0.10;;;;;;;12.77;70.66;98763.88;8004989;29;20255;-76
2022/10/03 05:19:21;;;;;;;0.10;0.10;;;;;;;12.76;70.50;98762.19;8004968;29;20242;-76
2022/10/03 05:23:30;;;;;;;0.10;0.10;;;;;;;12.75;70.77;98769.13;8004868;29;20409;-76
2022/10/03 05:27:37;;;;;;;0.10;0.10;;;;;;;12.82;70.46;98761.94;8003999;29;20248;-76
2022/10/03 05:31:48;;;;;;;0.10;0.10;;;;;;;12.85;69.97;98762.66;8004492;29;20345;-76
2022/10/03 05:36:09;;;;;;;0.10;0.10;;;;;;;12.78;70.42;98774.22;8004031;29;20303;-76
2022/10/03 05:40:16;;;;;;;0.10;0.10;;;;;;;12.82;70.92;98780.97;8004095;29;20251;-75
2022/10/03 05:44:21;;;;;;;0.10;0.10;;;;;;;12.84;70.79;98786.13;8004366;29;20239;-76
2022/10/03 05:48:32;;;;;;;0.00;0.00;;;;;;;12.86;70.82;98787.75;8004247;29;20246;-76
2022/10/03 05:52:49;;;;;;;0.00;0.00;;;;;;;12.79;70.62;98799.28;8003641;29;20252;-76
2022/10/03 05:57:20;;;;;;;0.10;0.10;;;;;;;12.87;70.56;98802.44;8003985;29;20461;-76
2022/10/03 06:02:02;;;;;;;0.07;0.07;;;;;;;12.82;70.47;98806.97;7997542;29;20239;-76
2022/10/03 06:06:18;;;;;;;0.10;0.10;;;;;;;12.86;70.50;98805.94;7910830;30;20240;-76
2022/10/03 06:10:33;;;;;;;0.10;0.10;;;;;;;12.95;70.31;98820.31;7960428;29;20239;-76
2022/10/03 06:15:02;;;;;;;0.10;0.10;;;;;;;13.01;69.83;98827.03;8003406;29;20239;-76
2022/10/03 06:19:16;;;;;;;0.10;0.10;;;;;;;13.02;70.34;98821.78;8002440;29;20239;-76
2022/10/03 06:23:47;;;;;;;0.10;0.10;;;;;;;13.11;70.37;98820.53;8003353;29;20269;-76
2022/10/03 06:28:23;;;;;;;0.10;0.10;;;;;;;13.21;69.85;98826.19;8000967;29;20235;-75
2022/10/03 06:33:09;;;;;;;0.10;0.10;;;;;;;13.15;70.41;98829.91;8002346;29;20345;-75
2022/10/03 06:37:50;;;;;;;0.00;0.00;;;;;;;13.24;69.90;98831.28;8003094;29;20232;-75
2022/10/03 06:42:38;;;;;;;0.10;0.10;;;;;;;13.26;69.67;98838.09;7986316;29;20276;-76
2022/10/03 06:47:01;;;;;;;0.10;0.10;;;;;;;13.32;69.35;98826.63;8001916;29;20242;-76
2022/10/03 06:51:21;;;;;;;0.00;0.00;;;;;;;13.53;68.83;98840.50;8002852;29;20260;-76
2022/10/03 06:55:49;;;;;;;0.10;0.10;;;;;;;13.68;68.49;98844.22;8002269;29;20254;-76
2022/10/03 07:00:03;;;;;;;0.00;0.00;;;;;;;13.72;68.50;98844.94;8002524;29;20246;-76
2022/10/03 07:04:23;;;;;;;0.00;0.00;;;;;;;13.61;69.45;98850.56;8002480;29;20292;-76
2022/10/03 07:08:40;;;;;;;0.10;0.10;;;;;;;13.73;68.40;98852.69;8001776;29;20246;-74
2022/10/03 07:13:11;;;;;;;0.00;0.00;;;;;;;13.92;68.71;98850.13;8002097;29;20281;-76
2022/10/03 07:17:35;;;;;;;0.00;0.00;;;;;;;13.77;68.16;98849.03;8002151;29;20295;-76
2022/10/03 07:22:07;;;;;;;0.10;0.10;;;;;;;14.03;68.23;98847.88;7992471;29;20251;-76
2022/10/03 07:26:40;;;;;;;0.03;0.03;;;;;;;14.13;68.07;98855.28;8001904;29;20232;-76
2022/10/03 07:30:55;;;;;;;0.10;0.10;;;;;;;14.23;66.72;98851.34;8001481;29;20251;-76
2022/10/03 07:35:13;;;;;;;0.00;0.00;;;;;;;14.49;67.36;98868.41;8001947;29;20538;-76
2022/10/03 07:39:39;;;;;;;0.10;0.10;;;;;;;14.69;66.90;98871.88;8001586;29;20244;-77
2022/10/03 07:44:16;;;;;;;0.10;0.10;;;;;;;14.84;66.40;98881.59;8001056;29;20246;-76
2022/10/03 07:48:52;;;;;;;0.00;0.00;;;;;;;15.18;65.74;98879.97;8001295;29;20290;-76
2022/10/03 07:53:12;;;;;;;0.10;0.10;;;;;;;15.48;63.95;98877.63;8001320;29;20239;-76
2022/10/03 07:57:27;;;;;;;0.00;0.00;;;;;;;15.94;63.03;98891.00;8004416;29;20242;-75
2022/10/03 08:01:42;;;;;;;0.00;0.00;;;;;;;16.19;61.18;98890.53;8006712;29;20239;-76
2022/10/03 08:06:22;;;;;;;0.00;0.00;;;;;;;16.49;60.08;98892.47;8007150;29;20284;-76
2022/10/03 08:10:54;;;;;;;0.00;0.00;;;;;;;16.98;59.16;98887.19;8004924;29;20243;-76
2022/10/03 08:15:03;;;;;;;0.00;0.00;;;;;;;17.41;58.30;98883.91;8006439;29;20235;-76
2022/10/03 08:19:18;;;;;;;0.00;0.00;;;;;;;17.71;56.41;98896.16;8006313;29;20247;-76
2022/10/03 08:23:59;;;;;;;0.00;0.00;;;;;;;17.72;55.63;98901.28;8006757;29;20231;-75
2022/10/03 08:28:25;;;;;;;0.00;0.00;;;;;;;17.18;57.97;98917.47;8006044;29;20243;-76
2022/10/03 08:32:42;;;;;;;0.00;0.00;;;;;;;16.80;58.12;98917.78;8005516;29;20566;-75
2022/10/03 08:37:05;;;;;;;0.00;0.00;;;;;;;16.61;59.68;98920.56;8005904;29;20247;-76
2022/10/03 08:41:35;;;;;;;0.00;0.00;;;;;;;17.64;56.12;98926.25;8005736;29;20247;-76
2022/10/03 08:46:05;;;;;;;0.00;0.00;;;;;;;17.43;57.27;98920.47;8003720;29;20243;-76
2022/10/03 08:50:37;;;;;;;0.00;0.00;;;;;;;17.10;56.84;98929.31;8005492;29;20440;-76
2022/10/03 08:55:09;;;;;;;0.00;0.00;;;;;;;16.66;58.56;98922.94;7994047;29;20240;-76
2022/10/03 08:59:43;;;;;;;0.00;0.00;;;;;;;16.72;57.71;98922.59;8005404;29;20300;-76
2022/10/03 09:04:16;;;;;;;0.00;0.00;;;;;;;16.89;57.97;98929.56;8005113;29;20296;-76
2022/10/03 09:08:48;;;;;;;0.00;0.00;;;;;;;16.38;58.10;98928.78;8004280;29;20243;-76
2022/10/03 09:13:47;;;;;;;0.00;0.00;;;;;;;17.18;56.55;98921.84;8004947;29;20421;-76
2022/10/03 09:18:04;;;;;;;0.00;0.00;;;;;;;16.96;56.12;98920.44;8004981;29;20232;-76
2022/10/03 09:22:18;;;;;;;0.00;0.00;;;;;;;17.14;57.17;98923.81;8005143;29;20247;-76
2022/10/03 09:26:45;;;;;;;0.00;0.00;;;;;;;17.81;55.21;98923.47;8005004;29;20246;-76
2022/10/03 09:30:53;;;;;;;0.00;0.00;;;;;;;17.28;56.91;98933.50;8004149;29;20235;-76
2022/10/03 09:35:29;;;;;;;0.00;0.00;;;;;;;17.15;56.75;98930.75;8004753;29;20238;-76
2022/10/03 09:40:10;;;;;;;0.00;0.00;;;;;;;17.14;55.83;98930.81;7999596;29;20263;-76
2022/10/03 09:44:35;;;;;;;0.00;0.00;;;;;;;17.49;55.37;98925.34;8004406;29;20240;-76
2022/10/03 09:49:03;;;;;;;0.00;0.00;;;;;;;17.25;56.27;98927.56;8004047;29;20243;-76
2022/10/03 09:53:45;;;;;;;0.00;0.00;;;;;;;16.96;55.96;98920.44;7996406;29;20243;-76
2022/10/03 09:58:09;;;;;;;0.00;0.00;;;;;;;16.66;56.20;98922.06;7999337;29;20235;-76
2022/10/03 10:02:33;;;;;;;0.00;0.00;;;;;;;16.55;57.22;98915.66;8003697;29;20238;-76
2022/10/03 10:06:53;;;;;;;0.00;0.00;;;;;;;17.13;57.12;98918.66;8003578;29;20304;-76
2022/10/03 10:11:10;;;;;;;0.00;0.00;;;;;;;17.41;54.27;98909.25;8003492;29;20255;-76
2022/10/03 10:16:10;;;;;;;0.00;0.00;;;;;;;17.12;55.03;98919.59;8003675;29;20244;-77
2022/10/03 10:20:27;;;;;;;0.00;0.00;;;;;;;17.04;56.55;98916.53;7944009;29;20255;-76
2022/10/03 10:24:50;;;;;;;0.00;0.00;;;;;;;18.14;53.69;98909.31;8002970;29;20240;-76
2022/10/03 10:29:19;;;;;;;0.00;0.00;;;;;;;17.97;52.95;98916.44;8003275;29;20247;-76
2022/10/03 10:33:55;;;;;;;0.00;0.00;;;;;;;18.02;53.50;98910.06;8003007;29;20243;-76
2022/10/03 10:38:12;;;;;;;0.00;0.00;;;;;;;17.50;53.92;98914.78;8003043;29;20445;-76
2022/10/03 10:42:47;;;;;;;0.00;0.00;;;;;;;17.27;54.14;98915.25;8002981;29;20312;-76
2022/10/03 10:47:12;;;;;;;0.00;0.00;;;;;;;17.32;53.99;98919.28;8002520;29;20468;-76
2022/10/03 10:51:36;;;;;;;0.00;0.00;;;;;;;17.56;55.00;98921.44;8002665;29;20243;-76
2022/10/03 10:56:17;;;;;;;0.00;0.00;;;;;;;17.44;55.04;98916.91;8002365;29;20231;-76
2022/10/03 11:00:25;;;;;;;0.00;0.00;;;;;;;17.44;54.11;98915.16;7999516;29;20240;-76
2022/10/03 11:05:16;;;;;;;0.00;0.00;;;;;;;17.05;53.79;98913.84;8002046;29;20284;-75
2022/10/03 11:09:31;;;;;;;0.00;0.00;;;;;;;17.11;54.36;98918.72;8002250;29;20243;-76
2022/10/03 11:14:10;;;;;;;0.00;0.00;;;;;;;18.00;53.88;98914.56;8001575;29;20236;-76
2022/10/03 11:18:50;;;;;;;0.00;0.00;;;;;;;17.89;52.91;98909.97;8002076;29;20235;-75
2022/10/03 11:23:35;;;;;;;0.00;0.00;;;;;;;18.10;52.12;98915.69;8001960;29;20231;-76
2022/10/03 11:28:20;;;;;;;0.00;0.00;;;;;;;19.09;50.15;98918.34;8001507;29;20231;-75
2022/10/03 11:33:13;;;;;;;0.00;0.00;;;;;;;19.61;48.18;98911.44;8001020;29;20247;-75
2022/10/03 11:37:32;;;;;;;0.00;0.00;;;;;;;19.84;46.91;98905.56;8001609;29;20237;-76
2022/10/03 11:41:47;;;;;;;0.00;0.00;;;;;;;20.17;46.28;98905.97;8001031;29;20302;-77
2022/10/03 11:45:51;;;;;;;0.00;0.00;;;;;;;19.26;41.92;98896.25;8001733;29;20239;-77
2022/10/03 11:50:29;;;;;;;0.00;0.00;;;;;;;19.37;40.78;98903.44;8001162;29;20242;-77
2022/10/03 11:54:33;;;;;;;0.00;0.00;;;;;;;20.34;41.59;98902.19;8001151;29;20241;-77
2022/10/03 11:58:55;;;;;;;0.00;0.00;;;;;;;19.85;42.79;98904.59;8001333;29;20557;-78
2022/10/03 12:03:16;;;;;;;0.00;0.00;;;;;;;18.99;44.73;98894.47;8001440;29;20237;-77
2022/10/03 12:12:05;;;;;;;0.00;0.00;;;;;;;18.12;44.79;98891.06;8000613;29;20239;-78
2022/10/03 12:16:19;;;;;;;0.00;0.00;;;;;;;17.91;43.84;98892.38;8000772;29;20240;-77
2022/10/03 12:20:25;;;;;;;0.00;0.00;;;;;;;18.00;44.83;98893.59;8000762;29;20243;-77
2022/10/03 12:24:32;;;;;;;0.00;0.00;;;;;;;17.76;45.65;98886.22;8000350;29;20250;-77
2022/10/03 12:28:38;;;;;;;0.00;0.00;;;;;;;17.64;47.19;98887.78;8000819;29;20247;-77
2022/10/03 12:32:48;;;;;;;0.00;0.00;;;;;;;17.54;46.70;98894.50;8000573;29;20239;-77
2022/10/03 12:36:56;;;;;;;0.00;0.00;;;;;;;17.49;47.17;98893.94;8000767;29;20233;-76
2022/10/03 12:41:11;;;;;;;0.00;0.00;;;;;;;17.72;46.91;98872.47;8000550;29;20240;-77
2022/10/03 12:45:24;;;;;;;0.00;0.00;;;;;;;17.80;46.16;98874.66;8004814;29;20242;-77
2022/10/03 12:49:36;;;;;;;0.00;0.00;;;;;;;17.84;47.51;98878.81;8005511;29;20236;-76
2022/10/03 12:53:49;;;;;;;0.07;0.07;;;;;;;17.72;45.49;98869.00;8005849;29;20292;-77
2022/10/03 12:58:00;;;;;;;0.00;0.00;;;;;;;17.89;45.92;98874.09;8005738;29;20538;-77
2022/10/03 13:02:23;;;;;;;0.00;0.00;;;;;;;17.83;46.20;98865.75;8005247;29;20242;-77
2022/10/03 13:06:44;;;;;;;0.00;0.00;;;;;;;17.73;48.20;98860.22;8003768;29;20409;-76
2022/10/03 13:11:16;;;;;;;0.00;0.00;;;;;;;17.50;46.53;98854.56;8005058;29;20240;-77
2022/10/03 13:15:54;;;;;;;0.00;0.00;;;;;;;17.58;46.61;98851.50;8005150;29;20250;-77
2022/10/03 13:20:00;;;;;;;0.00;0.00;;;;;;;17.48;46.96;98850.34;8004223;29;20584;-77
2022/10/03 13:24:06;;;;;;;0.00;0.00;;;;;;;17.46;47.23;98846.97;8004370;29;20235;-77
2022/10/03 13:28:14;;;;;;;0.00;0.00;;;;;;;17.52;47.40;98844.00;8004455;29;20235;-78
2022/10/03 13:32:29;;;;;;;0.00;0.00;;;;;;;17.37;47.82;98841.34;8004000;29;20338;-77
2022/10/03 13:36:35;;;;;;;0.00;0.00;;;;;;;17.95;45.71;98847.56;8003818;29;20243;-77
2022/10/03 13:40:42;;;;;;;0.00;0.00;;;;;;;18.22;46.43;98852.06;8003823;29;20262;-77
2022/10/03 13:44:51;;;;;;;0.00;0.00;;;;;;;17.98;46.35;98843.91;8003873;29;20255;-76
2022/10/03 13:48:59;;;;;;;0.00;0.00;;;;;;;17.87;46.07;98841.09;8004045;29;20239;-75
2022/10/03 13:53:06;;;;;;;0.00;0.00;;;;;;;18.01;45.04;98840.25;8003636;29;20535;-76
2022/10/03 13:57:14;;;;;;;0.00;0.00;;;;;;;18.17;46.38;98836.59;8003464;29;20309;-77
2022/10/03 14:01:28;;;;;;;0.00;0.00;;;;;;;18.00;45.91;98838.56;8003732;29;20247;-78
2022/10/03 14:05:59;;;;;;;0.00;0.00;;;;;;;17.80;46.43;98848.44;8003296;29;20417;-78
2022/10/03 14:10:19;;;;;;;0.00;0.00;;;;;;;17.80;47.49;98843.22;8003081;29;20376;-77
2022/10/03 14:14:43;;;;;;;0.03;0.03;;;;;;;17.80;50.61;98837.97;8003705;29;20236;-79
2022/10/03 14:18:52;;;;;;;0.00;0.00;;;;;;;17.63;47.48;98832.88;8003323;29;20276;-80
2022/10/03 14:23:03;;;;;;;0.00;0.00;;;;;;;17.64;46.77;98832.78;8004827;29;20239;-78
2022/10/03 14:27:16;;;;;;;0.00;0.00;;;;;;;18.45;45.93;98831.38;8003564;29;20239;-78
2022/10/03 14:31:24;;;;;;;0.00;0.00;;;;;;;18.89;44.20;98828.59;8003693;29;20236;-82
2022/10/03 14:35:36;;;;;;;0.00;0.00;;;;;;;19.16;44.73;98834.78;8002808;29;20281;-80
2022/10/03 14:39:45;;;;;;;0.00;0.00;;;;;;;18.84;44.41;98829.84;8003039;29;20347;-80
2022/10/03 14:43:52;;;;;;;0.00;0.00;;;;;;;18.26;44.86;98835.19;8003115;29;20239;-82
2022/10/03 14:47:57;;;;;;;0.00;0.00;;;;;;;17.84;44.21;98834.25;8003050;29;20246;-81
2022/10/03 14:52:03;;;;;;;0.00;0.00;;;;;;;17.38;45.40;98834.31;8002752;29;20471;-81
2022/10/03 14:56:10;;;;;;;0.00;0.00;;;;;;;17.47;46.66;98833.78;8002931;29;20256;-83
2022/10/03 15:00:24;;;;;;;0.00;0.00;;;;;;;17.31;46.18;98835.63;8002610;29;20307;-81
2022/10/03 15:04:30;;;;;;;0.00;0.00;;;;;;;17.16;46.75;98838.19;8002299;29;20232;-79
2022/10/03 15:08:38;;;;;;;0.00;0.00;;;;;;;17.02;46.76;98830.31;8001750;29;20267;-85
2022/10/03 15:12:45;;;;;;;0.00;0.00;;;;;;;17.02;48.16;98825.06;8002297;29;20250;-85
2022/10/03 15:16:51;;;;;;;0.00;0.00;;;;;;;17.02;48.19;98824.19;8002543;29;20232;-86
2022/10/03 15:20:54;;;;;;;0.00;0.00;;;;;;;16.83;49.36;98824.41;8002233;29;20511;-84
2022/10/03 15:25:00;;;;;;;0.00;0.00;;;;;;;16.85;50.33;98820.78;8002211;29;20227;-84
2022/10/03 15:29:06;;;;;;;0.00;0.00;;;;;;;16.80;50.36;98822.78;8001980;29;20436;-84
2022/10/03 15:33:14;;;;;;;0.00;0.00;;;;;;;16.71;51.21;98821.50;8002141;29;20310;-85
2022/10/03 15:37:18;;;;;;;0.00;0.00;;;;;;;16.64;52.25;98819.31;8002080;29;20239;-84
2022/10/03 15:41:26;;;;;;;0.00;0.00;;;;;;;16.64;51.16;98819.31;8003626;29;20239;-84
2022/10/03 15:45:32;;;;;;;0.00;0.00;;;;;;;16.57;52.01;98829.28;8003357;29;20240;-84
2022/10/03 15:49:38;;;;;;;0.00;0.00;;;;;;;16.54;52.34;98824.22;8003280;29;20239;-78
2022/10/03 15:53:40;;;;;;;0.00;0.00;;;;;;;16.45;52.10;98830.81;8002059;29;20254;-80
2022/10/03 15:57:46;;;;;;;0.00;0.00;;;;;;;16.35;52.23;98827.84;8001741;29;20311;-82
2022/10/03 16:01:54;;;;;;;0.00;0.00;;;;;;;16.28;52.75;98825.63;8003456;29;20235;-81
2022/10/03 16:06:03;;;;;;;0.00;0.00;;;;;;;16.29;52.86;98824.72;8003462;29;20261;-81
2022/10/03 16:10:19;;;;;;;0.00;0.00;;;;;;;16.20;53.62;98820.81;8003728;29;20243;-82
2022/10/03 16:14:23;;;;;;;0.00;0.00;;;;;;;16.15;53.66;98828.94;8003864;29;20306;-82
2022/10/03 16:19:03;;;;;;;0.00;0.00;;;;;;;16.12;54.15;98828.25;8006323;29;20250;-81
2022/10/03 16:23:12;;;;;;;0.00;0.00;;;;;;;16.10;54.18;98819.66;8007226;29;20421;-81
2022/10/03 16:27:17;;;;;;;0.00;0.00;;;;;;;15.99;54.43;98830.66;8006790;29;20232;-82
2022/10/03 16:31:22;;;;;;;0.10;0.10;;;;;;;16.00;54.78;98829.75;8007203;29;20239;-80
2022/10/03 16:35:32;;;;;;;0.00;0.00;;;;;;;15.96;54.89;98825.59;8008681;29;20235;-80
2022/10/03 16:39:37;;;;;;;0.00;0.00;;;;;;;15.87;55.80;98831.31;8009326;29;20250;-83
2022/10/03 16:43:41;;;;;;;0.00;0.00;;;;;;;15.86;55.48;98827.88;8006389;29;20300;-86
2022/10/03 16:47:44;;;;;;;0.10;0.10;;;;;;;15.83;55.82;98833.22;8006315;29;20250;-85
2022/10/03 16:51:55;;;;;;;0.00;0.00;;;;;;;15.77;56.44;98833.56;8005991;29;20240;-85
2022/10/03 16:56:04;;;;;;;0.00;0.00;;;;;;;15.73;56.67;98822.44;8006212;29;20470;-85
2022/10/03 17:00:14;;;;;;;0.00;0.00;;;;;;;15.75;56.75;98822.34;8006009;29;20255;-85
2022/10/03 17:04:22;;;;;;;0.00;0.00;;;;;;;15.77;56.84;98823.13;8004821;29;20235;-84
2022/10/03 17:08:30;;;;;;;0.00;0.00;;;;;;;15.72;57.03;98822.47;8005575;29;20436;-81
2022/10/03 17:12:45;;;;;;;0.00;0.00;;;;;;;15.61;57.85;98823.00;8005150;29;20248;-82
2022/10/03 17:16:51;;;;;;;0.00;0.00;;;;;;;15.60;57.27;98824.78;8005535;29;20236;-82
2022/10/03 17:20:56;;;;;;;0.00;0.00;;;;;;;15.55;57.46;98823.31;8005140;29;20242;-77
2022/10/03 17:25:04;;;;;;;0.00;0.00;;;;;;;15.48;57.43;98821.94;8005076;29;20607;-75
2022/10/03 17:29:13;;;;;;;0.00;0.00;;;;;;;15.51;58.15;98825.25;8004222;29;20231;-79
2022/10/03 17:33:19;;;;;;;0.03;0.03;;;;;;;15.44;58.29;98831.72;8004744;29;20266;-80
2022/10/03 17:37:48;;;;;;;0.00;0.00;;;;;;;15.50;59.18;98828.78;8004679;29;20292;-81
2022/10/03 17:41:55;;;;;;;0.00;0.00;;;;;;;15.49;59.38;98821.03;8004009;29;20247;-82
2022/10/03 17:46:04;;;;;;;0.00;0.00;;;;;;;15.46;59.07;98829.88;8004481;29;20235;-79
2022/10/03 17:50:13;;;;;;;0.00;0.00;;;;;;;15.47;59.55;98823.72;8004017;29;20243;-76
2022/10/03 17:54:19;;;;;;;0.00;0.00;;;;;;;15.44;59.02;98826.50;8004039;29;20246;-73
2022/10/03 17:58:25;;;;;;;0.00;0.00;;;;;;;15.37;59.42;98823.34;8003875;29;20235;-73
2022/10/03 18:02:35;;;;;;;0.00;0.00;;;;;;;15.38;60.40;98827.66;8003619;29;20247;-82
2022/10/03 18:06:44;;;;;;;0.00;0.00;;;;;;;15.35;60.40;98824.34;8003891;29;20240;-89
2022/10/03 18:10:49;;;;;;;0.00;0.00;;;;;;;15.33;59.72;98824.44;8003647;29;20247;-85
2022/10/03 18:15:19;;;;;;;0.00;0.00;;;;;;;15.40;60.21;98823.19;8003532;29;20239;-87
2022/10/03 18:19:33;;;;;;;0.00;0.00;;;;;;;15.37;60.27;98820.72;8003723;29;20239;-87
2022/10/03 18:23:42;;;;;;;0.00;0.00;;;;;;;15.36;60.09;98819.03;8003458;29;20256;-86
2022/10/03 18:28:10;;;;;;;0.00;0.00;;;;;;;15.32;60.71;98812.28;8003252;29;20232;-83
2022/10/03 18:32:18;;;;;;;0.00;0.00;;;;;;;15.29;60.79;98803.75;8003333;29;20437;-86
2022/10/03 18:36:25;;;;;;;0.00;0.00;;;;;;;15.21;61.02;98799.78;8003163;29;20239;-86
2022/10/03 18:40:30;;;;;;;0.00;0.00;;;;;;;15.80;64.30;98804.66;8001895;29;20534;-91
2022/10/03 18:44:35;;;;;;;0.00;0.00;;;;;;;16.21;59.77;98804.22;8003217;29;20250;-86
2022/10/03 18:48:45;;;;;;;0.00;0.00;;;;;;;15.57;59.63;98797.97;8002850;29;20239;-85
2022/10/03 18:53:16;;;;;;;0.00;0.00;;;;;;;15.27;59.36;98798.66;8002701;29;20259;-83
2022/10/03 18:57:25;;;;;;;0.00;0.00;;;;;;;15.09;60.09;98796.94;8002620;29;20232;-81
2022/10/03 19:01:32;;;;;;;0.10;0.10;;;;;;;15.00;60.56;98806.91;8001960;29;20306;-82
2022/10/03 19:05:42;;;;;;;0.00;0.00;;;;;;;14.91;60.39;98802.16;8002250;29;20247;-83
2022/10/03 19:10:03;;;;;;;0.00;0.00;;;;;;;14.76;61.34;98801.13;8002356;29;20847;-83
2022/10/03 19:14:11;;;;;;;0.00;0.00;;;;;;;14.78;61.63;98804.50;8001868;29;20458;-83
2022/10/03 19:18:21;;;;;;;0.00;0.00;;;;;;;14.62;60.95;98812.22;8002204;29;20235;-83
2022/10/03 19:22:30;;;;;;;0.00;0.00;;;;;;;14.57;61.68;98816.78;8001927;29;20546;-83
2022/10/03 19:26:34;;;;;;;0.00;0.00;;;;;;;14.53;61.63;98815.22;8001601;29;20236;-83
2022/10/03 19:30:40;;;;;;;0.00;0.00;;;;;;;14.42;61.83;98814.88;8001752;29;20251;-83
2022/10/03 19:34:44;;;;;;;0.00;0.00;;;;;;;14.40;62.00;98820.16;8001510;29;20255;-83
2022/10/03 19:38:49;;;;;;;0.00;0.00;;;;;;;14.38;62.45;98810.72;8001507;29;20243;-80
2022/10/03 19:42:58;;;;;;;0.10;0.10;;;;;;;14.20;62.51;98818.47;8001415;29;20227;-82
2022/10/03 19:47:07;;;;;;;0.00;0.00;;;;;;;14.19;62.50;98821.97;8001525;29;20235;-81
2022/10/03 19:51:11;;;;;;;0.00;0.00;;;;;;;14.20;62.39;98822.81;8001038;29;20546;-82
2022/10/03 19:55:24;;;;;;;0.00;0.00;;;;;;;14.20;62.36;98823.69;8001397;29;20244;-82
2022/10/03 19:59:37;;;;;;;0.10;0.10;;;;;;;14.02;62.50;98825.34;8000733;29;20232;-83
2022/10/03 20:03:43;;;;;;;0.00;0.00;;;;;;;14.01;62.60;98825.41;8001281;29;20254;-83
2022/10/03 20:07:47;;;;;;;0.00;0.00;;;;;;;13.92;62.46;98821.47;8001152;29;20238;-83
2022/10/03 20:11:53;;;;;;;0.00;0.00;;;;;;;13.87;62.25;98813.00;8000896;29;20443;-83
2022/10/03 20:15:57;;;;;;;0.00;0.00;;;;;;;13.71;62.54;98812.84;8000961;29;20243;-83